Flight Track Log - Related Links

Times and Time Zones

All times are in EST time to prevent confusion due to time zone crossing. See the N400PU flight status page for this flight to view local times or setup timezone preferences in your user account.

Time Position Orientation Groundspeed Altitude Reporting Facility
EST Latitude Longitude Course Direction KTS MPH feet Rate Location/Type
Mon 05:37:08 PM 38.8833 -77.4667 270° West 235 270 2,800  Level Potomac TRACON
Mon 05:39:30 PM 38.7944 -77.6025 230° Southwest 237 273 9,300 2,703 Climbing Washington Center
Mon 05:40:30 PM 38.8161 -77.6831 289° West 207 238 11,900 2,529 Climbing Washington Center
Mon 05:41:31 PM 38.8456 -77.7772 292° West 251 289 14,400 2,269 Climbing Washington Center
Mon 05:42:00 PM 39.0546 -78.0052 270° West  Level Estimated
Mon 05:42:29 PM 38.8708 -77.8819 287° West 298 343 16,400  Level Washington Center
Mon 05:43:29 PM 38.9000 -77.9894 289° West 318 366 17,900 1,884 Climbing Washington Center
Mon 05:44:30 PM 38.9269 -78.0944 288° West 323 372 20,200 2,182 Climbing Washington Center
Mon 05:45:30 PM 38.9539 -78.1969 289° West 317 365 22,300 2,033 Climbing Washington Center
Mon 05:46:31 PM 38.9661 -78.3094 278° West 311 358 24,300 1,983 Climbing Washington Center
Mon 05:47:31 PM 38.9739 -78.4219 275° West 317 365 26,300 1,884 Climbing Washington Center
Mon 05:48:32 PM 38.9814 -78.5450 275° West 317 365 28,100 1,664 Climbing Washington Center
Mon 05:49:30 PM 38.9889 -78.6575 275° West 322 371 29,600 1,475 Climbing Washington Center
Mon 05:50:30 PM 38.9964 -78.7753 275° West 327 376 31,000 1,339 Climbing Washington Center
Mon 05:51:31 PM 39.0036 -78.8933 275° West 327 376 32,300 1,289 Climbing Washington Center
Mon 05:52:31 PM 39.0086 -79.0083 273° West 327 376 33,600 1,169 Climbing Washington Center
Mon 05:53:29 PM 39.0181 -79.1236 276° West 327 376 34,600 1,017 Climbing Washington Center
Mon 05:54:29 PM 39.0228 -79.2442 273° West 327 376 35,600 942 Climbing Washington Center
Mon 05:55:30 PM 39.0314 -79.3622 275° West 332 382 36,500 793 Climbing Washington Center
Mon 05:56:30 PM 39.0383 -79.4775 274° West 332 382 37,200 694 Climbing Washington Center
Mon 05:57:31 PM 39.0469 -79.5928 276° West 332 382 37,900 403 Climbing Washington Center
Mon 05:58:29 PM 39.0594 -79.7164 277° West 332 382 38,000 51 Climbing Washington Center
Mon 05:59:29 PM 39.0656 -79.8425 274° West 345 397 38,000  Level Washington Center
Mon 06:00:30 PM 39.0733 -79.9714 274° West 356 410 38,000  Level Washington Center
Mon 06:01:49 PM 39.0792 -80.1422 273° West 373 429 38,000  Level Indianapolis Center
Mon 06:02:51 PM 39.0867 -80.2753 274° West 373 429 38,000  Level Indianapolis Center
Mon 06:03:53 PM 39.0958 -80.4092 275° West 375 432 38,000  Level Indianapolis Center
Mon 06:04:55 PM 39.1006 -80.5417 273° West 373 429 38,000  Level Indianapolis Center
Mon 06:05:57 PM 39.1117 -80.6758 276° West 378 435 38,000  Level Indianapolis Center
Mon 06:06:59 PM 39.1514 -80.8331 288° West 386 444 38,000  Level Indianapolis Center
Mon 06:08:01 PM 39.1825 -80.9644 287° West 384 442 38,000  Level Indianapolis Center
Mon 06:09:03 PM 39.2122 -81.0947 286° West 381 438 38,000  Level Indianapolis Center
Mon 06:10:05 PM 39.2433 -81.2236 287° West 378 435 38,000  Level Indianapolis Center
Mon 06:11:07 PM 39.2728 -81.3544 286° West 381 438 38,000  Level Indianapolis Center
Mon 06:12:09 PM 39.3094 -81.5092 287° West 378 435 38,000  Level Indianapolis Center
Mon 06:13:11 PM 39.3386 -81.6375 286° West 376 433 38,000  Level Indianapolis Center
Mon 06:14:13 PM 39.3675 -81.7667 286° West 376 433 38,000  Level Indianapolis Center
Mon 06:15:15 PM 39.3975 -81.8964 287° West 377 434 38,000  Level Indianapolis Center
Mon 06:16:16 PM 39.4275 -82.0283 286° West 382 440 38,000  Level Indianapolis Center
Mon 06:17:18 PM 39.4581 -82.1661 286° West 381 438 38,000  Level Indianapolis Center
Mon 06:18:20 PM 39.4878 -82.2983 286° West 383 441 38,000  Level Indianapolis Center
Mon 06:19:22 PM 39.5164 -82.4300 286° West 382 440 38,000  Level Indianapolis Center
Mon 06:20:24 PM 39.5467 -82.5631 286° West 385 443 38,000  Level Indianapolis Center
Mon 06:21:26 PM 39.5808 -82.7239 285° West 387 445 38,000  Level Indianapolis Center
Mon 06:22:28 PM 39.6103 -82.8581 286° West 387 445 38,000  Level Indianapolis Center
Mon 06:23:30 PM 39.6403 -82.9922 286° West 388 447 38,000  Level Indianapolis Center
Mon 06:24:32 PM 39.6686 -83.1278 285° West 389 448 38,000  Level Indianapolis Center
Mon 06:25:33 PM 39.6975 -83.2633 286° West 389 448 38,000  Level Indianapolis Center
Mon 06:26:35 PM 39.7261 -83.4003 285° West 390 449 38,000  Level Indianapolis Center
Mon 06:27:37 PM 39.7564 -83.5383 286° West 387 445 38,000 -97 Level Indianapolis Center
Mon 06:28:39 PM 39.7864 -83.6903 284° West 388 447 37,800 -484 Descending Indianapolis Center
Mon 06:29:41 PM 39.8128 -83.8119 286° West 386 444 37,000 -871 Descending Indianapolis Center
Mon 06:30:43 PM 39.8456 -83.9692 285° West 377 434 36,000 -484 Descending Indianapolis Center
Mon 06:31:45 PM 39.8703 -84.0950 284° West 361 415 36,000 -146 Level Indianapolis Center
Mon 06:32:46 PM 39.8961 -84.2222 285° West 364 419 35,700 -537 Descending Indianapolis Center
Mon 06:33:48 PM 39.9217 -84.3483 285° West 362 417 34,900 -919 Descending Indianapolis Center
Mon 06:34:50 PM 39.9475 -84.4742 285° West 360 414 33,800 -1,113 Descending Indianapolis Center
Mon 06:35:52 PM 39.9722 -84.5989 285° West 358 412 32,600 -1,306 Descending Indianapolis Center
Mon 06:36:54 PM 40.0025 -84.7536 284° West 365 420 31,100 -1,403 Descending Indianapolis Center
Mon 06:37:56 PM 40.0439 -84.8756 294° West 369 425 29,700 -1,306 Descending Indianapolis Center
Mon 06:38:58 PM 40.0836 -84.9739 298° West 350 403 28,400 -1,790 Descending Indianapolis Center
Mon 06:40:00 PM 40.1339 -85.1075 296° West 345 397 26,000 -1,887 Descending Indianapolis Center
Mon 06:41:02 PM 40.1517 -85.2331 281° West 352 405 24,500 -1,452 Descending Indianapolis Center
Mon 06:42:04 PM 40.1728 -85.3578 283° West 352 405 23,000 -1,452 Descending Indianapolis Center
Mon 06:43:06 PM 40.1917 -85.4772 282° West 342 394 21,500 -1,463 Descending Indianapolis Center
Mon 06:44:07 PM 40.2103 -85.5964 282° West 338 389 20,000 -1,512 Descending Indianapolis Center
Mon 06:45:09 PM 40.2286 -85.7133 282° West 332 382 18,400 -1,694 Descending Indianapolis Center
Mon 06:46:11 PM 40.2500 -85.8503 282° West 324 373 16,500 -1,641 Descending Indianapolis Center
Mon 06:47:17 PM 40.2675 -85.9681 281° West 336 387 14,900 -1,644 Descending Chicago Center
Mon 06:47:24 PM 40.2706 -85.9922 279° West 335 386 14,500 -1,881 Descending Chicago Center
Mon 06:48:24 PM 40.2878 -86.1075 281° West 314 361 12,800 -1,707 Descending Chicago Center
Mon 06:49:20 PM 40.3042 -86.2081 282° West 305 351 11,200 -1,770 Descending Chicago Center
Mon 06:49:25 PM 40.3050 -86.2175 277° West 290 334 11,000 -1,846 Descending Chicago Center
Mon 06:50:25 PM 40.3169 -86.3028 280° West 229 264 9,200 -1,884 Descending Chicago Center
Mon 06:51:26 PM 40.3244 -86.3903 276° West 227 261 7,200 -1,835 Descending Chicago Center
Mon 06:52:26 PM 40.3308 -86.4625 277° West 232 267 5,500 -1,869 Descending Chicago Center
Mon 06:52:27 PM 40.3300 -86.4697 261° West 229 264 5,300 -1,869 Descending Chicago Center
Mon 06:53:27 PM 40.3247 -86.5567 265° West 229 264 3,600 -1,140 Descending Chicago Center
Mon 06:54:28 PM 40.3261 -86.6386 271° West 234 269 3,000 -581 Descending Chicago Center
Mon 06:54:29 PM 40.3272 -86.6269 83° East 228 262 3,000  Level Chicago Center
Mon 06:55:28 PM 40.3269 -86.7286 270° West 237 273 3,000  Level Chicago Center
Mon 06:55:31 PM 40.3289 -86.7292 348° North 232 267 3,000  Level Chicago Center
Mon 06:56:29 PM 40.3281 -86.8106 269° West 234 269 3,000  Level Chicago Center
Mon 06:56:33 PM 40.3308 -86.8139 318° Northwest 234 269 3,000  Level Chicago Center
Mon 06:57:35 PM 40.3325 -86.8981 272° West 234 269 3,000  Level Chicago Center
Mon 06:58:30 PM 40.3319 -86.9800 270° West 230 265 3,000  Level Chicago Center
Mon 06:58:36 PM 40.3339 -86.9806 348° North 232 267 3,000  Level Chicago Center
Mon 06:59:31 PM 40.3356 -87.0456 272° West 160 184 3,000  Level Chicago Center
Mon 06:59:38 PM 40.3364 -87.0442 52° Northeast 203 234 3,000  Level Chicago Center
Mon 07:00:31 PM 40.3372 -87.1058 271° West 149 171 3,000  Level Chicago Center
Mon 07:00:40 PM 40.3397 -87.1006 58° Northeast 172 198 3,000  Level Chicago Center
Mon 07:01:32 PM 40.3392 -87.1606 269° West 154 177 3,000  Level Chicago Center
Mon 07:01:42 PM 40.3444 -87.1664 320° Northwest 159 183 3,000  Level Chicago Center
Mon 07:02:33 PM 40.3831 -87.1608 North 168 193 3,000  Level Chicago Center
Mon 07:02:43 PM 40.3903 -87.1572 21° North 170 196 3,000  Level Chicago Center
Mon 07:03:45 PM 40.4292 -87.1453 13° North 167 192 3,000 -108 Level Chicago Center
Mon 07:04:34 PM 40.4300 -87.0850 89° East 161 185 2,800 -550 Descending Chicago Center
Mon 07:05:34 PM 40.4236 -87.0381 100° East 128 147 2,000 -744 Descending Chicago Center
Mon 07:06:35 PM 40.4192 -86.9914 97° East 123 142 1,300 -689 Descending Chicago Center

Login

Don't have an account? Register now (free) for customized features, flight alerts, and more!